createdAt,value
2018-01-23T00:02:09.221Z,1.36
2018-01-23T00:11:45.829Z,1.40
2018-01-23T00:21:22.293Z,1.37
2018-01-23T00:30:59.194Z,1.40
2018-01-23T00:40:35.971Z,1.43
2018-01-23T00:50:12.771Z,1.20
2018-01-23T00:59:49.127Z,1.02
2018-01-23T01:09:25.810Z,0.97
2018-01-23T01:19:01.871Z,0.61
2018-01-23T01:28:38.298Z,0.50
2018-01-23T01:38:14.837Z,0.47
2018-01-23T01:47:52.073Z,0.49
2018-01-23T01:57:29.090Z,0.71
2018-01-23T02:07:05.926Z,0.64
2018-01-23T02:16:42.841Z,0.61
2018-01-23T02:26:19.734Z,0.68
2018-01-23T02:35:56.792Z,0.84
2018-01-23T02:45:33.727Z,0.90
2018-01-23T02:55:10.806Z,0.87
2018-01-23T03:04:47.714Z,0.89
2018-01-23T03:14:24.542Z,0.84
2018-01-23T03:24:01.016Z,0.83
2018-01-23T03:33:37.813Z,0.71
2018-01-23T03:43:14.133Z,0.59
2018-01-23T03:52:50.649Z,0.25
2018-01-23T04:02:27.248Z,0.25
2018-01-23T04:12:03.483Z,0.07
2018-01-23T04:21:40.274Z,-0.07
2018-01-23T04:31:17.010Z,-0.19
2018-01-23T04:40:53.109Z,-0.44
2018-01-23T04:50:29.924Z,-0.59
2018-01-23T05:00:06.463Z,-0.65
2018-01-23T05:09:43.077Z,-0.93
2018-01-23T05:19:19.826Z,-0.83
2018-01-23T05:28:56.626Z,-0.90
2018-01-23T05:38:33.429Z,-0.98
2018-01-23T05:48:10.412Z,-0.91
2018-01-23T05:57:48.017Z,-0.62
2018-01-23T06:07:25.311Z,-0.43
2018-01-23T06:17:02.794Z,-0.22
2018-01-23T06:26:44.063Z,-0.20
2018-01-23T06:36:12.176Z,-0.32
2018-01-23T06:45:52.907Z,-0.37
2018-01-23T06:55:30.054Z,-0.17
2018-01-23T07:05:06.980Z,-0.02
2018-01-23T07:14:44.331Z,0.01
2018-01-23T07:24:20.172Z,0.35
2018-01-23T07:33:57.109Z,0.79
2018-01-23T07:43:34.608Z,1.18
2018-01-23T07:53:11.620Z,1.37
2018-01-23T08:02:48.430Z,1.50
2018-01-23T08:12:25.213Z,1.66
2018-01-23T08:22:02.227Z,1.79
2018-01-23T08:31:39.249Z,1.50
2018-01-23T08:41:15.615Z,1.59
2018-01-23T08:50:52.755Z,2.10
2018-01-23T09:00:29.761Z,2.44
2018-01-23T09:10:06.822Z,2.66
2018-01-23T09:19:43.887Z,2.99
2018-01-23T09:29:21.051Z,3.37
2018-01-23T09:38:58.604Z,3.71
2018-01-23T09:48:36.494Z,4.64
2018-01-23T09:58:14.525Z,5.34
2018-01-23T10:07:52.368Z,5.90
2018-01-23T10:17:29.174Z,5.68
2018-01-23T10:27:05.529Z,5.78
2018-01-23T10:36:42.787Z,6.13
2018-01-23T10:46:19.989Z,6.44
2018-01-23T10:55:56.948Z,6.62
2018-01-23T11:05:34.465Z,7.03
2018-01-23T11:15:11.815Z,10.13
2018-01-23T11:24:49.356Z,10.71
2018-01-23T11:34:26.631Z,11.34
2018-01-23T11:44:04.044Z,10.33
2018-01-23T11:53:40.274Z,10.36
2018-01-23T12:03:18.162Z,10.77
2018-01-23T12:12:53.747Z,9.85
2018-01-23T12:22:29.830Z,10.00
2018-01-23T12:32:05.662Z,10.10
2018-01-23T12:41:43.893Z,10.28
2018-01-23T12:51:20.658Z,10.63
2018-01-23T13:01:00.842Z,11.10
2018-01-23T13:10:34.663Z,10.56
2018-01-23T13:20:12.512Z,10.01
2018-01-23T13:29:48.261Z,10.01
2018-01-23T13:39:23.626Z,9.29
2018-01-23T13:48:58.505Z,9.00
2018-01-23T13:58:34.377Z,8.65
2018-01-23T14:08:11.535Z,9.50
2018-01-23T14:17:53.416Z,9.55
2018-01-23T14:27:21.989Z,9.34
2018-01-23T14:36:56.376Z,8.76
2018-01-23T14:46:32.759Z,8.65
2018-01-23T14:56:08.323Z,8.09
2018-01-23T15:05:48.388Z,7.86
2018-01-23T15:15:15.952Z,7.41
2018-01-23T15:24:52.001Z,7.34
2018-01-23T15:34:28.226Z,7.05
2018-01-23T15:44:03.859Z,6.81
2018-01-23T15:53:40.342Z,6.52
2018-01-23T16:03:15.911Z,5.85
2018-01-23T16:12:51.680Z,5.65
2018-01-23T16:22:28.240Z,5.52
2018-01-23T16:32:04.713Z,5.62
2018-01-23T16:41:45.517Z,5.52
2018-01-23T16:51:14.514Z,5.36
2018-01-23T17:00:51.134Z,5.39
2018-01-23T17:10:31.361Z,5.24
2018-01-23T17:20:00.064Z,5.16
2018-01-23T17:29:36.606Z,5.16
2018-01-23T17:39:13.012Z,4.74
2018-01-23T17:48:49.019Z,4.58
2018-01-23T17:58:28.756Z,4.41
2018-01-23T18:07:57.222Z,4.38
2018-01-23T18:17:34.158Z,4.26
2018-01-23T18:27:10.874Z,4.36
2018-01-23T18:36:47.347Z,4.28
2018-01-23T18:46:24.141Z,4.22
2018-01-23T18:56:00.882Z,4.08
2018-01-23T19:05:40.482Z,4.02
2018-01-23T19:15:08.830Z,3.93
2018-01-23T19:24:49.084Z,3.65
2018-01-23T19:34:17.207Z,3.47
2018-01-23T19:43:53.043Z,3.43
2018-01-23T19:53:29.407Z,3.37
2018-01-23T20:03:05.764Z,3.19
2018-01-23T20:12:45.950Z,3.13
2018-01-23T20:22:14.671Z,2.92
2018-01-23T20:31:51.365Z,2.85
2018-01-23T20:41:28.043Z,2.66
2018-01-23T20:51:04.770Z,2.41
2018-01-23T21:00:40.674Z,2.06
2018-01-23T21:10:16.526Z,1.84
2018-01-23T21:19:52.217Z,1.41
2018-01-23T21:29:28.328Z,1.30
2018-01-23T21:39:04.216Z,0.90
2018-01-23T21:48:40.490Z,0.59
2018-01-23T21:58:16.524Z,0.53
2018-01-23T22:07:53.034Z,0.45
2018-01-23T22:17:29.489Z,0.35
2018-01-23T22:27:05.883Z,0.01
2018-01-23T22:36:42.202Z,-0.17
2018-01-23T22:46:18.236Z,-0.25
2018-01-23T22:55:54.820Z,-0.37
2018-01-23T23:05:31.424Z,-0.43
2018-01-23T23:15:08.381Z,-0.48
2018-01-23T23:24:45.033Z,-0.47
2018-01-23T23:34:21.898Z,-0.68
2018-01-23T23:43:58.358Z,-0.80
2018-01-23T23:53:35.121Z,-0.68
